RYR76C EDDN-EPGD
Flight info
| Callsign | RYR76C |
|---|---|
| Flight time | 1h 17m |
| Altitude | 31000 |
| Route | ERETO1G ERETO Z715 ABKIS/N0454F380 L132 EKPEK/N0455F370 DCT BODLA Z491 VAVUN L730 KOSEX |
| Aircraft | B738/M-SDE2E3FGHIRWXY/LB1 |
Departure
| Time | 2026-04-27 15:19 |
|---|---|
| Airport | Nuremberg Airport (EDDN) |
Arrival
| Time | 2026-04-27 16:36 |
|---|---|
| Airport | Gdańsk Lech Wałęsa Airport (EPGD) |
| Time | Latitude | Longitude | Altitude | Speed | Heading |
|---|---|---|---|---|---|
| 2026-04-27 14:40 | 49.49480 | 11.08230 | 1025 ft | 0 kts | 188° |
| 2026-04-27 15:09 | 49.49483 | 11.08231 | 1025 ft | 3 kts | 188° |
| 2026-04-27 15:09 | 49.49503 | 11.08235 | 1026 ft | 3 kts | 187° |
| 2026-04-27 15:09 | 49.49522 | 11.08238 | 1026 ft | 3 kts | 178° |
| 2026-04-27 15:09 | 49.49532 | 11.08236 | 1027 ft | 1 kts | 149° |
| 2026-04-27 15:10 | 49.49539 | 11.08227 | 1026 ft | 1 kts | 114° |
| 2026-04-27 15:10 | 49.49542 | 11.08215 | 1027 ft | 1 kts | 102° |
| 2026-04-27 15:10 | 49.49543 | 11.08202 | 1027 ft | 1 kts | 99° |
| 2026-04-27 15:10 | 49.49544 | 11.08195 | 1027 ft | 0 kts | 98° |
| 2026-04-27 15:13 | 49.49543 | 11.08211 | 1027 ft | 6 kts | 97° |
| 2026-04-27 15:13 | 49.49536 | 11.08295 | 1028 ft | 9 kts | 92° |
| 2026-04-27 15:13 | 49.49578 | 11.08352 | 1031 ft | 9 kts | 12° |
| 2026-04-27 15:13 | 49.49619 | 11.08412 | 1033 ft | 9 kts | 83° |
| 2026-04-27 15:14 | 49.49606 | 11.08533 | 1034 ft | 13 kts | 98° |
| 2026-04-27 15:14 | 49.49593 | 11.08670 | 1035 ft | 13 kts | 98° |
| 2026-04-27 15:14 | 49.49581 | 11.08804 | 1036 ft | 12 kts | 98° |
| 2026-04-27 15:14 | 49.49569 | 11.08934 | 1037 ft | 12 kts | 97° |
| 2026-04-27 15:15 | 49.49559 | 11.09061 | 1039 ft | 12 kts | 97° |
| 2026-04-27 15:15 | 49.49543 | 11.09182 | 1041 ft | 11 kts | 101° |
| 2026-04-27 15:15 | 49.49531 | 11.09281 | 1043 ft | 8 kts | 100° |
| 2026-04-27 15:15 | 49.49532 | 11.09364 | 1045 ft | 7 kts | 72° |
| 2026-04-27 15:16 | 49.49558 | 11.09424 | 1047 ft | 7 kts | 55° |
| 2026-04-27 15:16 | 49.49586 | 11.09482 | 1048 ft | 6 kts | 47° |
| 2026-04-27 15:16 | 49.49588 | 11.09486 | 1048 ft | 0 kts | 47° |
| 2026-04-27 15:17 | 49.49617 | 11.09534 | 1050 ft | 12 kts | 47° |
| 2026-04-27 15:17 | 49.49684 | 11.09580 | 1052 ft | 11 kts | 342° |
| 2026-04-27 15:18 | 49.49702 | 11.09535 | 1051 ft | 5 kts | 276° |
| 2026-04-27 15:18 | 49.49732 | 11.09205 | 1046 ft | 71 kts | 279° |
| 2026-04-27 15:18 | 49.49844 | 11.08073 | 1030 ft | 143 kts | 278° |
| 2026-04-27 15:18 | 49.50006 | 11.06356 | 1529 ft | 160 kts | 279° |
| 2026-04-27 15:19 | 49.50173 | 11.04662 | 2442 ft | 167 kts | 280° |
| 2026-04-27 15:19 | 49.50352 | 11.02845 | 3144 ft | 183 kts | 280° |
| 2026-04-27 15:19 | 49.50560 | 11.00715 | 3475 ft | 217 kts | 279° |
| 2026-04-27 15:19 | 49.50797 | 10.98275 | 3816 ft | 243 kts | 279° |
| 2026-04-27 15:20 | 49.51154 | 10.95600 | 4249 ft | 264 kts | 293° |
| 2026-04-27 15:20 | 49.52268 | 10.93380 | 5192 ft | 266 kts | 326° |
| 2026-04-27 15:20 | 49.53998 | 10.92447 | 6255 ft | 267 kts | 355° |
| 2026-04-27 15:20 | 49.55882 | 10.92418 | 6927 ft | 274 kts | 1° |
| 2026-04-27 15:21 | 49.57785 | 10.92516 | 7225 ft | 275 kts | 1° |
| 2026-04-27 15:21 | 49.59707 | 10.92608 | 7259 ft | 275 kts | 1° |
| 2026-04-27 15:21 | 49.61631 | 10.92684 | 7257 ft | 276 kts | 1° |
| 2026-04-27 15:21 | 49.63528 | 10.92753 | 7261 ft | 275 kts | 1° |
| 2026-04-27 15:22 | 49.65434 | 10.92807 | 7255 ft | 274 kts | 1° |
| 2026-04-27 15:22 | 49.67337 | 10.92858 | 7274 ft | 274 kts | 0° |
| 2026-04-27 15:22 | 49.69246 | 10.92959 | 7263 ft | 275 kts | 8° |
| 2026-04-27 15:22 | 49.71017 | 10.94012 | 7260 ft | 275 kts | 34° |
| 2026-04-27 15:23 | 49.72505 | 10.95856 | 7272 ft | 274 kts | 40° |
| 2026-04-27 15:23 | 49.73947 | 10.97796 | 7273 ft | 275 kts | 40° |
| 2026-04-27 15:23 | 49.75387 | 10.99743 | 7264 ft | 275 kts | 40° |
| 2026-04-27 15:23 | 49.76832 | 11.01687 | 7280 ft | 275 kts | 40° |
| 2026-04-27 15:24 | 49.78285 | 11.03628 | 7272 ft | 277 kts | 40° |
| 2026-04-27 15:24 | 49.79745 | 11.05568 | 7267 ft | 277 kts | 40° |
| 2026-04-27 15:24 | 49.81205 | 11.07509 | 7278 ft | 277 kts | 40° |
| 2026-04-27 15:24 | 49.82671 | 11.09459 | 7261 ft | 278 kts | 40° |
| 2026-04-27 15:25 | 49.84050 | 11.11547 | 7251 ft | 278 kts | 55° |
| 2026-04-27 15:25 | 49.84960 | 11.14187 | 7267 ft | 280 kts | 64° |
| 2026-04-27 15:25 | 49.85791 | 11.16927 | 7275 ft | 280 kts | 64° |
| 2026-04-27 15:25 | 49.86617 | 11.19662 | 7267 ft | 280 kts | 64° |
| 2026-04-27 15:26 | 49.87442 | 11.22384 | 7273 ft | 279 kts | 64° |
| 2026-04-27 15:26 | 49.87991 | 11.24188 | 7275 ft | 278 kts | 64° |
| 2026-04-27 15:26 | 49.88821 | 11.26894 | 7300 ft | 278 kts | 64° |
| 2026-04-27 15:26 | 49.89664 | 11.29633 | 7652 ft | 283 kts | 64° |
| 2026-04-27 15:27 | 49.90516 | 11.32395 | 8635 ft | 285 kts | 63° |
| 2026-04-27 15:27 | 49.91376 | 11.35188 | 9634 ft | 288 kts | 63° |
| 2026-04-27 15:27 | 49.92248 | 11.38020 | 10499 ft | 295 kts | 63° |
| 2026-04-27 15:27 | 49.93220 | 11.40965 | 10792 ft | 320 kts | 54° |
| 2026-04-27 15:28 | 49.94749 | 11.43642 | 11016 ft | 343 kts | 43° |
| 2026-04-27 15:28 | 49.96511 | 11.46306 | 11440 ft | 360 kts | 42° |
| 2026-04-27 15:28 | 49.98328 | 11.49042 | 12165 ft | 366 kts | 42° |
| 2026-04-27 15:28 | 50.00155 | 11.51831 | 12998 ft | 371 kts | 42° |
| 2026-04-27 15:29 | 50.01996 | 11.54682 | 13796 ft | 376 kts | 43° |
| 2026-04-27 15:29 | 50.03859 | 11.57591 | 14506 ft | 382 kts | 43° |
| 2026-04-27 15:29 | 50.05742 | 11.60544 | 15228 ft | 386 kts | 43° |
| 2026-04-27 15:29 | 50.07614 | 11.63489 | 15938 ft | 391 kts | 43° |
| 2026-04-27 15:30 | 50.09504 | 11.66583 | 16631 ft | 396 kts | 44° |
| 2026-04-27 15:30 | 50.11391 | 11.69754 | 17306 ft | 402 kts | 45° |
| 2026-04-27 15:30 | 50.13298 | 11.72972 | 17989 ft | 406 kts | 44° |
| 2026-04-27 15:30 | 50.15233 | 11.76223 | 18634 ft | 411 kts | 44° |
| 2026-04-27 15:31 | 50.17193 | 11.79504 | 19242 ft | 414 kts | 44° |
| 2026-04-27 15:31 | 50.19103 | 11.82903 | 19875 ft | 419 kts | 50° |
| 2026-04-27 15:31 | 50.20705 | 11.86737 | 20480 ft | 425 kts | 56° |
| 2026-04-27 15:31 | 50.22218 | 11.90720 | 21056 ft | 428 kts | 56° |
| 2026-04-27 15:32 | 50.23757 | 11.94729 | 21614 ft | 432 kts | 56° |
| 2026-04-27 15:32 | 50.25325 | 11.98755 | 22162 ft | 436 kts | 55° |
| 2026-04-27 15:32 | 50.26904 | 12.02817 | 22723 ft | 438 kts | 54° |
| 2026-04-27 15:32 | 50.28013 | 12.05456 | 23086 ft | 439 kts | 52° |
| 2026-04-27 15:33 | 50.29714 | 12.09261 | 23607 ft | 442 kts | 51° |
| 2026-04-27 15:33 | 50.31494 | 12.13193 | 24066 ft | 445 kts | 51° |
| 2026-04-27 15:33 | 50.33273 | 12.17185 | 24487 ft | 449 kts | 51° |
| 2026-04-27 15:33 | 50.34992 | 12.21227 | 24893 ft | 454 kts | 55° |
| 2026-04-27 15:34 | 50.36542 | 12.25562 | 25308 ft | 458 kts | 58° |
| 2026-04-27 15:34 | 50.38019 | 12.30002 | 25696 ft | 462 kts | 59° |
| 2026-04-27 15:34 | 50.39480 | 12.34505 | 26110 ft | 465 kts | 59° |
| 2026-04-27 15:34 | 50.40950 | 12.39031 | 26495 ft | 467 kts | 59° |
| 2026-04-27 15:35 | 50.42439 | 12.43575 | 26870 ft | 470 kts | 59° |
| 2026-04-27 15:35 | 50.43950 | 12.48146 | 27237 ft | 473 kts | 59° |
| 2026-04-27 15:35 | 50.45476 | 12.52739 | 27600 ft | 476 kts | 59° |
| 2026-04-27 15:35 | 50.47016 | 12.57364 | 27947 ft | 479 kts | 59° |
| 2026-04-27 15:36 | 50.48563 | 12.62014 | 28286 ft | 482 kts | 59° |
| 2026-04-27 15:36 | 50.50118 | 12.66698 | 28619 ft | 485 kts | 59° |
| 2026-04-27 15:36 | 50.51675 | 12.71396 | 28956 ft | 487 kts | 59° |
| 2026-04-27 15:36 | 50.53239 | 12.76131 | 29355 ft | 488 kts | 59° |
| 2026-04-27 15:37 | 50.54797 | 12.80862 | 29850 ft | 486 kts | 59° |
| 2026-04-27 15:37 | 50.56347 | 12.85573 | 30356 ft | 485 kts | 59° |
| 2026-04-27 15:37 | 50.57897 | 12.90290 | 30762 ft | 484 kts | 59° |
| 2026-04-27 15:37 | 50.59438 | 12.94987 | 31122 ft | 484 kts | 59° |
| 2026-04-27 15:38 | 50.63044 | 13.03795 | 31224 ft | 479 kts | 42° |
| 2026-04-27 15:38 | 50.68211 | 13.10067 | 31221 ft | 461 kts | 21° |
| 2026-04-27 15:39 | 50.73966 | 13.14468 | 31223 ft | 459 kts | 20° |
| 2026-04-27 15:39 | 50.79716 | 13.18877 | 31233 ft | 459 kts | 21° |
| 2026-04-27 15:40 | 50.85447 | 13.23390 | 31226 ft | 460 kts | 21° |
| 2026-04-27 15:40 | 50.91174 | 13.27940 | 31233 ft | 461 kts | 21° |
| 2026-04-27 15:41 | 50.96939 | 13.32363 | 31229 ft | 457 kts | 15° |
| 2026-04-27 15:41 | 51.02982 | 13.35248 | 31231 ft | 452 kts | 9° |
| 2026-04-27 15:42 | 51.09028 | 13.37843 | 31220 ft | 453 kts | 9° |
| 2026-04-27 15:42 | 51.15109 | 13.40499 | 31223 ft | 453 kts | 10° |
| 2026-04-27 15:43 | 51.21194 | 13.43220 | 31230 ft | 454 kts | 10° |
| 2026-04-27 15:43 | 51.27270 | 13.45966 | 31234 ft | 454 kts | 10° |
| 2026-04-27 15:44 | 51.33356 | 13.48727 | 31227 ft | 454 kts | 10° |
| 2026-04-27 15:44 | 51.39439 | 13.51494 | 31232 ft | 454 kts | 10° |
| 2026-04-27 15:45 | 51.45522 | 13.54267 | 31232 ft | 454 kts | 10° |
| 2026-04-27 15:45 | 51.51608 | 13.57048 | 31231 ft | 454 kts | 10° |
| 2026-04-27 15:46 | 51.57638 | 13.59812 | 31229 ft | 454 kts | 10° |
| 2026-04-27 15:46 | 51.63707 | 13.62601 | 31232 ft | 453 kts | 10° |
| 2026-04-27 15:47 | 51.69778 | 13.65399 | 31228 ft | 453 kts | 10° |
| 2026-04-27 15:47 | 51.75842 | 13.68201 | 31226 ft | 453 kts | 10° |
| 2026-04-27 15:48 | 51.81903 | 13.71010 | 31229 ft | 453 kts | 10° |
| 2026-04-27 15:49 | 51.90957 | 13.75221 | 31232 ft | 452 kts | 10° |
| 2026-04-27 15:49 | 51.97009 | 13.78045 | 31228 ft | 452 kts | 10° |
| 2026-04-27 15:50 | 52.03054 | 13.80874 | 31228 ft | 452 kts | 10° |
| 2026-04-27 15:50 | 52.09091 | 13.83707 | 31228 ft | 452 kts | 10° |
| 2026-04-27 15:51 | 52.15134 | 13.86551 | 31225 ft | 451 kts | 10° |
| 2026-04-27 15:51 | 52.21166 | 13.89398 | 31218 ft | 451 kts | 10° |
| 2026-04-27 15:52 | 52.27189 | 13.92249 | 31224 ft | 451 kts | 10° |
| 2026-04-27 15:52 | 52.33207 | 13.95105 | 31226 ft | 450 kts | 10° |
| 2026-04-27 15:53 | 52.39188 | 13.97952 | 31224 ft | 450 kts | 10° |
| 2026-04-27 15:53 | 52.45198 | 14.00821 | 31226 ft | 449 kts | 10° |
| 2026-04-27 15:54 | 52.51200 | 14.03694 | 31229 ft | 449 kts | 10° |
| 2026-04-27 15:54 | 52.57202 | 14.06575 | 31227 ft | 449 kts | 10° |
| 2026-04-27 15:55 | 52.63203 | 14.09464 | 31238 ft | 449 kts | 10° |
| 2026-04-27 15:55 | 52.69201 | 14.12360 | 31234 ft | 449 kts | 10° |
| 2026-04-27 15:56 | 52.75191 | 14.15261 | 31232 ft | 449 kts | 10° |
| 2026-04-27 15:56 | 52.81187 | 14.18172 | 31236 ft | 449 kts | 10° |
| 2026-04-27 15:57 | 52.87178 | 14.21089 | 31234 ft | 449 kts | 10° |
| 2026-04-27 15:57 | 52.93169 | 14.24015 | 31236 ft | 449 kts | 10° |
| 2026-04-27 15:58 | 52.99157 | 14.26949 | 31243 ft | 449 kts | 10° |
| 2026-04-27 15:58 | 53.05144 | 14.29890 | 31243 ft | 449 kts | 10° |
| 2026-04-27 15:59 | 53.11123 | 14.32836 | 31252 ft | 448 kts | 10° |
| 2026-04-27 15:59 | 53.17102 | 14.35791 | 31257 ft | 447 kts | 10° |
| 2026-04-27 16:00 | 53.23053 | 14.38763 | 31257 ft | 448 kts | 13° |
| 2026-04-27 16:00 | 53.24952 | 14.40212 | 31242 ft | 458 kts | 26° |
| 2026-04-27 16:00 | 53.28158 | 14.45045 | 31260 ft | 475 kts | 48° |
| 2026-04-27 16:00 | 53.29747 | 14.49870 | 31271 ft | 485 kts | 64° |
| 2026-04-27 16:01 | 53.30917 | 14.55175 | 31265 ft | 487 kts | 66° |
| 2026-04-27 16:01 | 53.33106 | 14.65882 | 31257 ft | 487 kts | 66° |
| 2026-04-27 16:02 | 53.35375 | 14.76574 | 31257 ft | 486 kts | 65° |
| 2026-04-27 16:02 | 53.37684 | 14.87197 | 31264 ft | 486 kts | 65° |
| 2026-04-27 16:03 | 53.39979 | 14.97859 | 31267 ft | 485 kts | 65° |
| 2026-04-27 16:03 | 53.42253 | 15.08517 | 31265 ft | 486 kts | 65° |
| 2026-04-27 16:04 | 53.44519 | 15.19185 | 31268 ft | 486 kts | 65° |
| 2026-04-27 16:04 | 53.46783 | 15.29886 | 31264 ft | 486 kts | 65° |
| 2026-04-27 16:05 | 53.48984 | 15.40534 | 31258 ft | 486 kts | 66° |
| 2026-04-27 16:05 | 53.51203 | 15.51253 | 31248 ft | 483 kts | 62° |
| 2026-04-27 16:05 | 53.52718 | 15.56251 | 31253 ft | 475 kts | 51° |
| 2026-04-27 16:06 | 53.54579 | 15.60810 | 31263 ft | 472 kts | 48° |
| 2026-04-27 16:06 | 53.58341 | 15.69864 | 31261 ft | 473 kts | 50° |
| 2026-04-27 16:07 | 53.62019 | 15.79053 | 31259 ft | 473 kts | 50° |
| 2026-04-27 16:07 | 53.65675 | 15.88253 | 31262 ft | 472 kts | 50° |
| 2026-04-27 16:08 | 53.69330 | 15.97470 | 31255 ft | 472 kts | 50° |
| 2026-04-27 16:08 | 53.72978 | 16.06690 | 31260 ft | 472 kts | 50° |
| 2026-04-27 16:08 | 53.74805 | 16.11316 | 30738 ft | 476 kts | 50° |
| 2026-04-27 16:09 | 53.76638 | 16.15969 | 29971 ft | 474 kts | 50° |
| 2026-04-27 16:09 | 53.80251 | 16.25175 | 28195 ft | 471 kts | 51° |
| 2026-04-27 16:09 | 53.82047 | 16.29768 | 27582 ft | 464 kts | 51° |
| 2026-04-27 16:10 | 53.85566 | 16.38785 | 26290 ft | 453 kts | 51° |
| 2026-04-27 16:10 | 53.88996 | 16.47591 | 25063 ft | 443 kts | 51° |
| 2026-04-27 16:11 | 53.90684 | 16.51937 | 24463 ft | 438 kts | 51° |
| 2026-04-27 16:11 | 53.93999 | 16.60507 | 23141 ft | 431 kts | 51° |
| 2026-04-27 16:12 | 53.96697 | 16.67515 | 22107 ft | 422 kts | 51° |
| 2026-04-27 16:12 | 53.98293 | 16.71670 | 21503 ft | 417 kts | 51° |
| 2026-04-27 16:12 | 54.01424 | 16.79836 | 20321 ft | 408 kts | 51° |
| 2026-04-27 16:13 | 54.02962 | 16.83853 | 19748 ft | 403 kts | 51° |
| 2026-04-27 16:13 | 54.05990 | 16.91779 | 18616 ft | 396 kts | 51° |
| 2026-04-27 16:13 | 54.07484 | 16.95703 | 17975 ft | 392 kts | 51° |
| 2026-04-27 16:14 | 54.09799 | 17.04091 | 16790 ft | 395 kts | 70° |
| 2026-04-27 16:14 | 54.10538 | 17.13352 | 15666 ft | 393 kts | 80° |
| 2026-04-27 16:15 | 54.10972 | 17.22510 | 14577 ft | 387 kts | 80° |
| 2026-04-27 16:15 | 54.11433 | 17.31559 | 13561 ft | 377 kts | 80° |
| 2026-04-27 16:16 | 54.11885 | 17.40131 | 13238 ft | 350 kts | 79° |
| 2026-04-27 16:16 | 54.12309 | 17.48134 | 12949 ft | 328 kts | 79° |
| 2026-04-27 16:17 | 54.12746 | 17.55656 | 12528 ft | 312 kts | 75° |
| 2026-04-27 16:17 | 54.13441 | 17.62888 | 11910 ft | 308 kts | 79° |
| 2026-04-27 16:18 | 54.13547 | 17.70127 | 11397 ft | 303 kts | 84° |
| 2026-04-27 16:18 | 54.13549 | 17.77296 | 10919 ft | 302 kts | 84° |
| 2026-04-27 16:19 | 54.13561 | 17.80875 | 10665 ft | 301 kts | 84° |
| 2026-04-27 16:19 | 54.13581 | 17.84444 | 10420 ft | 301 kts | 84° |
| 2026-04-27 16:20 | 54.13656 | 17.94988 | 9636 ft | 292 kts | 84° |
| 2026-04-27 16:20 | 54.13683 | 17.98443 | 9363 ft | 289 kts | 84° |
| 2026-04-27 16:20 | 54.13737 | 18.05230 | 8824 ft | 283 kts | 85° |
| 2026-04-27 16:21 | 54.13763 | 18.08572 | 8560 ft | 280 kts | 85° |
| 2026-04-27 16:21 | 54.13835 | 18.18413 | 7781 ft | 274 kts | 85° |
| 2026-04-27 16:22 | 54.13858 | 18.21613 | 7529 ft | 272 kts | 85° |
| 2026-04-27 16:22 | 54.13900 | 18.28020 | 7022 ft | 269 kts | 85° |
| 2026-04-27 16:22 | 54.13919 | 18.31208 | 6776 ft | 268 kts | 86° |
| 2026-04-27 16:23 | 54.13938 | 18.34384 | 6511 ft | 267 kts | 86° |
| 2026-04-27 16:23 | 54.13972 | 18.40683 | 5982 ft | 265 kts | 86° |
| 2026-04-27 16:23 | 54.13988 | 18.43823 | 5713 ft | 265 kts | 86° |
| 2026-04-27 16:24 | 54.14003 | 18.46959 | 5461 ft | 264 kts | 86° |
| 2026-04-27 16:24 | 54.14030 | 18.53208 | 5048 ft | 263 kts | 86° |
| 2026-04-27 16:25 | 54.14056 | 18.59448 | 5095 ft | 264 kts | 86° |
| 2026-04-27 16:25 | 54.14080 | 18.65898 | 5106 ft | 287 kts | 86° |
| 2026-04-27 16:26 | 54.14111 | 18.73514 | 5096 ft | 356 kts | 87° |
| 2026-04-27 16:26 | 54.14122 | 18.82190 | 5086 ft | 369 kts | 87° |
| 2026-04-27 16:27 | 54.14131 | 18.90938 | 5076 ft | 369 kts | 87° |
| 2026-04-27 16:27 | 54.15076 | 19.03144 | 5092 ft | 332 kts | 53° |
| 2026-04-27 16:28 | 54.18463 | 19.08058 | 4990 ft | 305 kts | 14° |
| 2026-04-27 16:28 | 54.22024 | 19.06534 | 4996 ft | 261 kts | 312° |
| 2026-04-27 16:29 | 54.24650 | 18.99297 | 4976 ft | 222 kts | 296° |
| 2026-04-27 16:30 | 54.25794 | 18.94624 | 4759 ft | 210 kts | 296° |
| 2026-04-27 16:30 | 54.26916 | 18.90112 | 4435 ft | 203 kts | 296° |
| 2026-04-27 16:31 | 54.28544 | 18.83611 | 3987 ft | 183 kts | 296° |
| 2026-04-27 16:31 | 54.29511 | 18.79760 | 3710 ft | 174 kts | 296° |
| 2026-04-27 16:32 | 54.30480 | 18.75891 | 3435 ft | 178 kts | 296° |
| 2026-04-27 16:32 | 54.30966 | 18.73949 | 3309 ft | 178 kts | 296° |
| 2026-04-27 16:33 | 54.31931 | 18.70085 | 3017 ft | 177 kts | 297° |
| 2026-04-27 16:33 | 54.32379 | 18.68295 | 2817 ft | 180 kts | 296° |
| 2026-04-27 16:33 | 54.32865 | 18.66345 | 2588 ft | 176 kts | 296° |
| 2026-04-27 16:33 | 54.33340 | 18.64435 | 2360 ft | 169 kts | 296° |
| 2026-04-27 16:34 | 54.33792 | 18.62627 | 2127 ft | 161 kts | 295° |
| 2026-04-27 16:34 | 54.34221 | 18.60903 | 1914 ft | 154 kts | 296° |
| 2026-04-27 16:34 | 54.34624 | 18.59278 | 1717 ft | 145 kts | 296° |
| 2026-04-27 16:34 | 54.35007 | 18.57725 | 1517 ft | 140 kts | 296° |
| 2026-04-27 16:35 | 54.35383 | 18.56217 | 1369 ft | 140 kts | 297° |
| 2026-04-27 16:35 | 54.35762 | 18.54683 | 1200 ft | 136 kts | 297° |
| 2026-04-27 16:35 | 54.36494 | 18.51726 | 813 ft | 135 kts | 297° |
| 2026-04-27 16:36 | 54.36863 | 18.50237 | 664 ft | 137 kts | 298° |
| 2026-04-27 16:36 | 54.37222 | 18.48803 | 503 ft | 126 kts | 301° |
| 2026-04-27 16:36 | 54.37546 | 18.47512 | 479 ft | 98 kts | 292° |
| 2026-04-27 16:36 | 54.37765 | 18.46820 | 471 ft | 39 kts | 322° |
| 2026-04-27 16:37 | 54.37960 | 18.46580 | 472 ft | 25 kts | 346° |
| 2026-04-27 16:37 | 54.38064 | 18.46644 | 472 ft | 14 kts | 28° |
| 2026-04-27 16:37 | 54.38102 | 18.46676 | 470 ft | 0 kts | 23° |